TimePST,TemperatureF,Dew PointF,Humidity,Sea Level PressureIn,VisibilityMPH,Wind Direction,Wind SpeedMPH,Gust SpeedMPH,PrecipitationIn,Events,Conditions,WindDirDegrees,DateUTC
12:52 AM,41.0,14.0,33,30.09,-9999.0,NNW,3.5,-,N/A,,Unknown,330,2013-01-20 08:52:00
1:52 AM,35.1,14.0,42,30.10,-9999.0,North,4.6,-,N/A,,Unknown,10,2013-01-20 09:52:00
2:52 AM,42.1,14.0,32,30.08,-9999.0,North,4.6,-,N/A,,Unknown,350,2013-01-20 10:52:00
3:52 AM,42.1,14.0,32,30.08,-9999.0,NW,4.6,-,N/A,,Unknown,320,2013-01-20 11:52:00
4:52 AM,41.0,12.9,32,30.09,-9999.0,North,4.6,-,N/A,,Unknown,350,2013-01-20 12:52:00
5:52 AM,44.1,10.9,26,30.09,-9999.0,North,4.6,-,N/A,,Unknown,10,2013-01-20 13:52:00
6:52 AM,43.0,10.9,27,30.09,-9999.0,NNE,4.6,-,N/A,,Unknown,30,2013-01-20 14:52:00
7:52 AM,54.0,12.0,19,30.09,-9999.0,ENE,5.8,-,N/A,,Unknown,60,2013-01-20 15:52:00
8:52 AM,63.0,8.1,11,30.08,-9999.0,East,15.0,-,N/A,,Unknown,80,2013-01-20 16:52:00
9:52 AM,64.9,7.0,10,30.09,-9999.0,ENE,16.1,20.7,N/A,,Unknown,70,2013-01-20 17:52:00
10:52 AM,66.9,8.1,10,30.07,-9999.0,ENE,23.0,26.5,N/A,,Unknown,70,2013-01-20 18:52:00
11:52 AM,68.0,6.1,9,30.04,-9999.0,ENE,17.3,-,N/A,,Unknown,70,2013-01-20 19:52:00
12:52 PM,68.0,7.0,9,30.00,-9999.0,ENE,19.6,26.5,N/A,,Unknown,60,2013-01-20 20:52:00
1:52 PM,69.1,6.1,9,29.99,-9999.0,ENE,16.1,-,N/A,,Unknown,70,2013-01-20 21:52:00
2:52 PM,68.0,6.1,9,29.98,-9999.0,ENE,19.6,-,N/A,,Unknown,60,2013-01-20 22:52:00
3:52 PM,66.0,5.0,9,29.99,-9999.0,ENE,18.4,-,N/A,,Unknown,60,2013-01-20 23:52:00
4:52 PM,61.0,6.1,11,30.01,-9999.0,ENE,9.2,-,N/A,,Unknown,70,2013-01-21 00:52:00
5:52 PM,53.1,8.1,16,30.03,-9999.0,ENE,11.5,-,N/A,,Unknown,70,2013-01-21 01:52:00
6:52 PM,46.0,9.0,22,30.06,-9999.0,East,10.4,-,N/A,,Unknown,80,2013-01-21 02:52:00
7:52 PM,46.0,9.0,22,30.06,-9999.0,East,10.4,-,N/A,,Unknown,80,2013-01-21 03:52:00
8:52 PM,43.0,10.0,26,30.06,-9999.0,NNE,4.6,-,N/A,,Unknown,20,2013-01-21 04:52:00
9:52 PM,43.0,10.9,27,30.06,-9999.0,Calm,Calm,-,N/A,,Unknown,0,2013-01-21 05:52:00
10:52 PM,41.0,10.0,28,30.06,-9999.0,Calm,Calm,-,N/A,,Unknown,0,2013-01-21 06:52:00
11:52 PM,34.0,10.9,38,30.04,-9999.0,NNE,4.6,-,N/A,,Unknown,20,2013-01-21 07:52:00